Terminal Aerodrome Forecast
Issued by NWS

Home | Current Version | Previous Version | Text Only | Print | Product List | Glossary Off
Versions: 1 2 3 4 5 6 7 8 9 10 11 12 13 14 15 16 17 18 19 20 21 22 23 24 25 26 27

000
FTUS43 KLOT 151136
TAFDPA
TAF
KDPA 151136Z 1512/1612 16010KT 1 1/2SM -SN BR SCT010 OVC015
      TEMPO 1512/1514 3/4SM -SN BR OVC012
     FM151700 21007KT 3SM -SN OVC018
     FM151900 27010KT 5SM -SN BKN012 OVC020
     FM160000 27013KT P6SM SCT015 BKN025
     FM160600 29012KT 6SM -SN BKN025 PROB30 1606/1610 2SM -SHSN=

USA.gov is the U.S. government's official web portal to all federal, state and local government web resources and services.